CCA1366 ZUCK-VMMC
Flight info
| Callsign | CCA1366 |
|---|---|
| Flight time | 1h 28m |
| Altitude | 33100 |
| Route | UGUGU W182 LAGEX G586 QP B330 POU R473 ZUH |
| Aircraft | B738/M-SDE2E3FGHIRWXY/LB1 |
Departure
| Time | 2026-04-27 12:37 |
|---|---|
| Airport | Chongqing Jiangbei International Airport (ZUCK) |
Arrival
| Time | 2026-04-27 14:06 |
|---|---|
| Airport | Macau International Airport (VMMC) |
| Time | Latitude | Longitude | Altitude | Speed | Heading |
|---|---|---|---|---|---|
| 2026-04-27 12:09 | 29.71355 | 106.64946 | 1370 ft | 0 kts | 111° |
| 2026-04-27 12:20 | 29.71357 | 106.64941 | 1370 ft | 2 kts | 111° |
| 2026-04-27 12:20 | 29.71362 | 106.64925 | 1370 ft | 1 kts | 111° |
| 2026-04-27 12:20 | 29.71366 | 106.64915 | 1370 ft | 1 kts | 107° |
| 2026-04-27 12:21 | 29.71367 | 106.64899 | 1370 ft | 2 kts | 87° |
| 2026-04-27 12:21 | 29.71365 | 106.64882 | 1370 ft | 2 kts | 72° |
| 2026-04-27 12:21 | 29.71359 | 106.64867 | 1370 ft | 2 kts | 56° |
| 2026-04-27 12:21 | 29.71350 | 106.64855 | 1370 ft | 2 kts | 39° |
| 2026-04-27 12:22 | 29.71339 | 106.64847 | 1370 ft | 0 kts | 25° |
| 2026-04-27 12:22 | 29.71333 | 106.64844 | 1370 ft | 1 kts | 21° |
| 2026-04-27 12:22 | 29.71332 | 106.64844 | 1370 ft | 0 kts | 22° |
| 2026-04-27 12:24 | 29.71334 | 106.64844 | 1370 ft | 0 kts | 21° |
| 2026-04-27 12:24 | 29.71351 | 106.64848 | 1370 ft | 7 kts | 7° |
| 2026-04-27 12:24 | 29.71419 | 106.64857 | 1370 ft | 10 kts | 9° |
| 2026-04-27 12:25 | 29.71494 | 106.64870 | 1370 ft | 12 kts | 5° |
| 2026-04-27 12:25 | 29.71594 | 106.64869 | 1370 ft | 15 kts | 358° |
| 2026-04-27 12:25 | 29.71706 | 106.64874 | 1370 ft | 15 kts | 10° |
| 2026-04-27 12:25 | 29.71812 | 106.64909 | 1370 ft | 17 kts | 17° |
| 2026-04-27 12:26 | 29.71942 | 106.64954 | 1370 ft | 20 kts | 17° |
| 2026-04-27 12:26 | 29.72075 | 106.64999 | 1370 ft | 19 kts | 17° |
| 2026-04-27 12:26 | 29.72209 | 106.65044 | 1370 ft | 20 kts | 17° |
| 2026-04-27 12:26 | 29.72349 | 106.65093 | 1370 ft | 21 kts | 17° |
| 2026-04-27 12:27 | 29.72493 | 106.65142 | 1370 ft | 22 kts | 17° |
| 2026-04-27 12:27 | 29.72644 | 106.65195 | 1370 ft | 23 kts | 17° |
| 2026-04-27 12:27 | 29.72802 | 106.65249 | 1370 ft | 23 kts | 17° |
| 2026-04-27 12:27 | 29.72964 | 106.65305 | 1370 ft | 24 kts | 17° |
| 2026-04-27 12:28 | 29.73132 | 106.65363 | 1371 ft | 25 kts | 17° |
| 2026-04-27 12:28 | 29.73305 | 106.65423 | 1371 ft | 26 kts | 17° |
| 2026-04-27 12:28 | 29.73478 | 106.65504 | 1371 ft | 27 kts | 26° |
| 2026-04-27 12:28 | 29.73647 | 106.65597 | 1371 ft | 24 kts | 26° |
| 2026-04-27 12:29 | 29.73802 | 106.65680 | 1371 ft | 17 kts | 28° |
| 2026-04-27 12:29 | 29.73818 | 106.65791 | 1371 ft | 15 kts | 107° |
| 2026-04-27 12:29 | 29.73784 | 106.65916 | 1371 ft | 16 kts | 108° |
| 2026-04-27 12:29 | 29.73749 | 106.66048 | 1371 ft | 17 kts | 106° |
| 2026-04-27 12:30 | 29.73712 | 106.66188 | 1371 ft | 18 kts | 107° |
| 2026-04-27 12:30 | 29.73673 | 106.66335 | 1371 ft | 19 kts | 107° |
| 2026-04-27 12:30 | 29.73640 | 106.66464 | 1371 ft | 11 kts | 95° |
| 2026-04-27 12:30 | 29.73693 | 106.66526 | 1371 ft | 12 kts | 19° |
| 2026-04-27 12:31 | 29.73778 | 106.66555 | 1371 ft | 13 kts | 17° |
| 2026-04-27 12:31 | 29.73870 | 106.66587 | 1371 ft | 14 kts | 17° |
| 2026-04-27 12:31 | 29.73968 | 106.66621 | 1371 ft | 15 kts | 17° |
| 2026-04-27 12:31 | 29.74073 | 106.66657 | 1371 ft | 16 kts | 17° |
| 2026-04-27 12:32 | 29.74186 | 106.66697 | 1371 ft | 17 kts | 17° |
| 2026-04-27 12:32 | 29.74303 | 106.66738 | 1371 ft | 18 kts | 17° |
| 2026-04-27 12:32 | 29.74427 | 106.66779 | 1371 ft | 19 kts | 17° |
| 2026-04-27 12:32 | 29.74557 | 106.66823 | 1371 ft | 19 kts | 17° |
| 2026-04-27 12:33 | 29.74649 | 106.66876 | 1372 ft | 10 kts | 67° |
| 2026-04-27 12:33 | 29.74679 | 106.66951 | 1372 ft | 11 kts | 37° |
| 2026-04-27 12:33 | 29.74750 | 106.66991 | 1372 ft | 11 kts | 49° |
| 2026-04-27 12:33 | 29.74752 | 106.67084 | 1372 ft | 12 kts | 107° |
| 2026-04-27 12:34 | 29.74725 | 106.67184 | 1372 ft | 13 kts | 107° |
| 2026-04-27 12:34 | 29.74685 | 106.67259 | 1372 ft | 11 kts | 155° |
| 2026-04-27 12:34 | 29.74632 | 106.67254 | 1372 ft | 0 kts | 196° |
| 2026-04-27 12:36 | 29.74594 | 106.67242 | 1372 ft | 24 kts | 196° |
| 2026-04-27 12:36 | 29.74146 | 106.67087 | 1372 ft | 106 kts | 196° |
| 2026-04-27 12:36 | 29.73213 | 106.66761 | 1376 ft | 172 kts | 197° |
| 2026-04-27 12:37 | 29.71984 | 106.66331 | 1960 ft | 188 kts | 198° |
| 2026-04-27 12:37 | 29.70778 | 106.65955 | 2841 ft | 191 kts | 187° |
| 2026-04-27 12:37 | 29.69385 | 106.65939 | 3328 ft | 209 kts | 174° |
| 2026-04-27 12:37 | 29.67884 | 106.66045 | 3834 ft | 227 kts | 177° |
| 2026-04-27 12:38 | 29.66256 | 106.66080 | 4493 ft | 239 kts | 178° |
| 2026-04-27 12:38 | 29.64553 | 106.66081 | 5177 ft | 250 kts | 179° |
| 2026-04-27 12:38 | 29.62795 | 106.66084 | 5818 ft | 262 kts | 179° |
| 2026-04-27 12:38 | 29.60929 | 106.66086 | 6433 ft | 275 kts | 179° |
| 2026-04-27 12:39 | 29.58975 | 106.66096 | 7112 ft | 286 kts | 179° |
| 2026-04-27 12:39 | 29.56982 | 106.66121 | 7911 ft | 291 kts | 180° |
| 2026-04-27 12:39 | 29.54966 | 106.66144 | 8774 ft | 292 kts | 181° |
| 2026-04-27 12:39 | 29.52933 | 106.66154 | 9668 ft | 293 kts | 181° |
| 2026-04-27 12:40 | 29.50898 | 106.66163 | 10476 ft | 295 kts | 181° |
| 2026-04-27 12:40 | 29.48800 | 106.66174 | 11036 ft | 307 kts | 181° |
| 2026-04-27 12:40 | 29.46637 | 106.66187 | 11558 ft | 319 kts | 181° |
| 2026-04-27 12:40 | 29.44367 | 106.66203 | 12013 ft | 334 kts | 181° |
| 2026-04-27 12:41 | 29.41985 | 106.66219 | 12474 ft | 348 kts | 181° |
| 2026-04-27 12:41 | 29.39523 | 106.66231 | 12954 ft | 360 kts | 181° |
| 2026-04-27 12:41 | 29.36989 | 106.66248 | 13436 ft | 371 kts | 181° |
| 2026-04-27 12:41 | 29.34367 | 106.66261 | 13844 ft | 383 kts | 182° |
| 2026-04-27 12:42 | 29.31648 | 106.66273 | 14227 ft | 396 kts | 182° |
| 2026-04-27 12:42 | 29.28838 | 106.66299 | 14609 ft | 408 kts | 182° |
| 2026-04-27 12:42 | 29.25964 | 106.66323 | 14971 ft | 419 kts | 181° |
| 2026-04-27 12:42 | 29.23019 | 106.66344 | 15406 ft | 427 kts | 181° |
| 2026-04-27 12:43 | 29.20040 | 106.66367 | 16040 ft | 429 kts | 182° |
| 2026-04-27 12:43 | 29.17055 | 106.66394 | 16687 ft | 431 kts | 181° |
| 2026-04-27 12:43 | 29.14042 | 106.66421 | 17241 ft | 435 kts | 182° |
| 2026-04-27 12:43 | 29.10989 | 106.66464 | 17745 ft | 440 kts | 180° |
| 2026-04-27 12:44 | 29.07924 | 106.66739 | 18233 ft | 446 kts | 174° |
| 2026-04-27 12:44 | 29.04892 | 106.67537 | 18757 ft | 453 kts | 165° |
| 2026-04-27 12:44 | 29.01956 | 106.68941 | 19227 ft | 461 kts | 156° |
| 2026-04-27 12:44 | 28.99148 | 106.70721 | 19746 ft | 465 kts | 152° |
| 2026-04-27 12:45 | 28.96369 | 106.72673 | 20232 ft | 469 kts | 150° |
| 2026-04-27 12:45 | 28.93622 | 106.74699 | 20697 ft | 473 kts | 149° |
| 2026-04-27 12:45 | 28.90863 | 106.76776 | 21135 ft | 477 kts | 149° |
| 2026-04-27 12:45 | 28.88070 | 106.78887 | 21574 ft | 481 kts | 149° |
| 2026-04-27 12:46 | 28.85248 | 106.81014 | 22056 ft | 484 kts | 149° |
| 2026-04-27 12:46 | 28.82565 | 106.83025 | 22483 ft | 488 kts | 149° |
| 2026-04-27 12:46 | 28.79717 | 106.85146 | 22980 ft | 490 kts | 149° |
| 2026-04-27 12:46 | 28.76845 | 106.87273 | 23347 ft | 495 kts | 149° |
| 2026-04-27 12:47 | 28.73935 | 106.89418 | 23804 ft | 498 kts | 150° |
| 2026-04-27 12:47 | 28.71001 | 106.91574 | 24222 ft | 501 kts | 150° |
| 2026-04-27 12:47 | 28.68051 | 106.93735 | 24673 ft | 504 kts | 150° |
| 2026-04-27 12:47 | 28.65120 | 106.95878 | 25085 ft | 507 kts | 150° |
| 2026-04-27 12:48 | 28.62126 | 106.98021 | 25538 ft | 508 kts | 151° |
| 2026-04-27 12:48 | 28.59111 | 107.00135 | 26158 ft | 506 kts | 151° |
| 2026-04-27 12:48 | 28.56123 | 107.02209 | 26856 ft | 502 kts | 152° |
| 2026-04-27 12:48 | 28.53175 | 107.04246 | 27544 ft | 498 kts | 152° |
| 2026-04-27 12:49 | 28.50199 | 107.06300 | 28190 ft | 494 kts | 152° |
| 2026-04-27 12:49 | 28.47288 | 107.08309 | 28854 ft | 490 kts | 152° |
| 2026-04-27 12:49 | 28.44389 | 107.10313 | 29457 ft | 488 kts | 152° |
| 2026-04-27 12:49 | 28.41487 | 107.12318 | 29944 ft | 488 kts | 152° |
| 2026-04-27 12:50 | 28.38589 | 107.14320 | 30368 ft | 489 kts | 152° |
| 2026-04-27 12:50 | 28.35685 | 107.16328 | 30787 ft | 490 kts | 152° |
| 2026-04-27 12:50 | 28.32771 | 107.18344 | 31187 ft | 491 kts | 152° |
| 2026-04-27 12:50 | 28.29885 | 107.20341 | 31614 ft | 491 kts | 152° |
| 2026-04-27 12:51 | 28.26955 | 107.22368 | 32022 ft | 491 kts | 152° |
| 2026-04-27 12:51 | 28.21106 | 107.26411 | 32078 ft | 492 kts | 152° |
| 2026-04-27 12:52 | 28.15289 | 107.30431 | 32077 ft | 489 kts | 152° |
| 2026-04-27 12:52 | 28.09458 | 107.34450 | 32074 ft | 491 kts | 152° |
| 2026-04-27 12:53 | 28.00700 | 107.40480 | 32066 ft | 491 kts | 152° |
| 2026-04-27 12:53 | 27.94863 | 107.44492 | 32064 ft | 490 kts | 152° |
| 2026-04-27 12:54 | 27.89040 | 107.48489 | 32061 ft | 490 kts | 152° |
| 2026-04-27 12:54 | 27.83397 | 107.52361 | 32054 ft | 489 kts | 152° |
| 2026-04-27 12:55 | 27.77781 | 107.56208 | 32051 ft | 490 kts | 152° |
| 2026-04-27 12:55 | 27.71967 | 107.60184 | 32049 ft | 489 kts | 152° |
| 2026-04-27 12:56 | 27.66129 | 107.64172 | 32047 ft | 489 kts | 152° |
| 2026-04-27 12:56 | 27.60309 | 107.68143 | 32043 ft | 488 kts | 152° |
| 2026-04-27 12:57 | 27.54484 | 107.72113 | 32041 ft | 488 kts | 152° |
| 2026-04-27 12:57 | 27.48663 | 107.76073 | 32037 ft | 488 kts | 152° |
| 2026-04-27 12:58 | 27.42837 | 107.80033 | 32041 ft | 488 kts | 152° |
| 2026-04-27 12:58 | 27.37041 | 107.83969 | 32049 ft | 487 kts | 152° |
| 2026-04-27 12:59 | 27.31239 | 107.87903 | 32050 ft | 488 kts | 152° |
| 2026-04-27 12:59 | 27.25414 | 107.91846 | 32051 ft | 488 kts | 152° |
| 2026-04-27 13:00 | 27.19628 | 107.95760 | 32049 ft | 487 kts | 152° |
| 2026-04-27 13:00 | 27.13800 | 107.99696 | 32039 ft | 487 kts | 152° |
| 2026-04-27 13:01 | 27.07990 | 108.03614 | 32036 ft | 487 kts | 152° |
| 2026-04-27 13:01 | 27.02197 | 108.07517 | 32031 ft | 487 kts | 152° |
| 2026-04-27 13:02 | 26.96355 | 108.11449 | 32025 ft | 488 kts | 151° |
| 2026-04-27 13:02 | 26.90535 | 108.15363 | 32024 ft | 488 kts | 152° |
| 2026-04-27 13:03 | 26.84722 | 108.19267 | 32029 ft | 488 kts | 152° |
| 2026-04-27 13:03 | 26.79029 | 108.23085 | 32024 ft | 489 kts | 151° |
| 2026-04-27 13:04 | 26.73169 | 108.27010 | 32019 ft | 490 kts | 151° |
| 2026-04-27 13:04 | 26.67354 | 108.30900 | 32031 ft | 491 kts | 152° |
| 2026-04-27 13:05 | 26.61690 | 108.35236 | 32038 ft | 494 kts | 142° |
| 2026-04-27 13:05 | 26.56844 | 108.40701 | 32036 ft | 499 kts | 131° |
| 2026-04-27 13:06 | 26.53012 | 108.47135 | 32022 ft | 503 kts | 119° |
| 2026-04-27 13:06 | 26.50323 | 108.54353 | 32005 ft | 507 kts | 108° |
| 2026-04-27 13:07 | 26.48912 | 108.61990 | 32007 ft | 508 kts | 96° |
| 2026-04-27 13:07 | 26.48639 | 108.69862 | 32007 ft | 507 kts | 91° |
| 2026-04-27 13:08 | 26.48264 | 108.77359 | 32010 ft | 507 kts | 97° |
| 2026-04-27 13:08 | 26.47108 | 108.85137 | 32011 ft | 508 kts | 103° |
| 2026-04-27 13:09 | 26.45459 | 108.92770 | 32010 ft | 508 kts | 105° |
| 2026-04-27 13:09 | 26.43345 | 109.00256 | 32009 ft | 506 kts | 114° |
| 2026-04-27 13:10 | 26.40070 | 109.07171 | 32009 ft | 506 kts | 125° |
| 2026-04-27 13:10 | 26.35697 | 109.13233 | 32010 ft | 503 kts | 136° |
| 2026-04-27 13:11 | 26.30368 | 109.18242 | 32018 ft | 496 kts | 148° |
| 2026-04-27 13:11 | 26.24423 | 109.22126 | 32027 ft | 495 kts | 154° |
| 2026-04-27 13:12 | 26.18448 | 109.25911 | 32035 ft | 497 kts | 151° |
| 2026-04-27 13:12 | 26.12648 | 109.30188 | 32034 ft | 498 kts | 147° |
| 2026-04-27 13:13 | 26.07079 | 109.34810 | 32030 ft | 499 kts | 144° |
| 2026-04-27 13:13 | 26.01664 | 109.39559 | 32034 ft | 499 kts | 143° |
| 2026-04-27 13:14 | 25.96210 | 109.44426 | 32023 ft | 499 kts | 143° |
| 2026-04-27 13:14 | 25.90813 | 109.49252 | 32017 ft | 501 kts | 143° |
| 2026-04-27 13:15 | 25.85476 | 109.54009 | 32006 ft | 500 kts | 143° |
| 2026-04-27 13:15 | 25.80055 | 109.58830 | 32007 ft | 503 kts | 143° |
| 2026-04-27 13:16 | 25.74867 | 109.63657 | 32001 ft | 503 kts | 140° |
| 2026-04-27 13:16 | 25.69774 | 109.68995 | 32011 ft | 505 kts | 137° |
| 2026-04-27 13:17 | 25.65042 | 109.74129 | 32015 ft | 504 kts | 137° |
| 2026-04-27 13:17 | 25.60162 | 109.79398 | 32028 ft | 504 kts | 138° |
| 2026-04-27 13:18 | 25.55138 | 109.84757 | 32027 ft | 506 kts | 138° |
| 2026-04-27 13:18 | 25.50040 | 109.90147 | 32033 ft | 508 kts | 138° |
| 2026-04-27 13:19 | 25.44940 | 109.95515 | 32027 ft | 507 kts | 138° |
| 2026-04-27 13:19 | 25.39821 | 110.00895 | 32003 ft | 505 kts | 138° |
| 2026-04-27 13:20 | 25.34741 | 110.06225 | 31995 ft | 507 kts | 138° |
| 2026-04-27 13:20 | 25.29607 | 110.11606 | 31987 ft | 507 kts | 138° |
| 2026-04-27 13:21 | 25.24501 | 110.16952 | 31987 ft | 508 kts | 138° |
| 2026-04-27 13:21 | 25.19353 | 110.22340 | 31987 ft | 510 kts | 138° |
| 2026-04-27 13:22 | 25.14226 | 110.27750 | 31989 ft | 509 kts | 137° |
| 2026-04-27 13:22 | 25.09149 | 110.33132 | 31995 ft | 508 kts | 137° |
| 2026-04-27 13:23 | 25.04051 | 110.38531 | 32010 ft | 509 kts | 137° |
| 2026-04-27 13:23 | 24.98958 | 110.43916 | 32024 ft | 510 kts | 137° |
| 2026-04-27 13:24 | 24.93816 | 110.49354 | 32019 ft | 510 kts | 137° |
| 2026-04-27 13:24 | 24.88719 | 110.54742 | 32012 ft | 508 kts | 137° |
| 2026-04-27 13:25 | 24.83636 | 110.60106 | 32009 ft | 510 kts | 137° |
| 2026-04-27 13:25 | 24.78760 | 110.65246 | 32008 ft | 509 kts | 138° |
| 2026-04-27 13:26 | 24.73750 | 110.70521 | 32007 ft | 508 kts | 137° |
| 2026-04-27 13:26 | 24.68834 | 110.75690 | 32016 ft | 509 kts | 138° |
| 2026-04-27 13:27 | 24.63738 | 110.81073 | 32021 ft | 508 kts | 137° |
| 2026-04-27 13:27 | 24.58685 | 110.86511 | 32023 ft | 508 kts | 137° |
| 2026-04-27 13:28 | 24.53653 | 110.91954 | 32025 ft | 508 kts | 137° |
| 2026-04-27 13:28 | 24.48602 | 110.97407 | 32019 ft | 508 kts | 137° |
| 2026-04-27 13:29 | 24.43585 | 111.02805 | 32016 ft | 508 kts | 137° |
| 2026-04-27 13:29 | 24.38533 | 111.08224 | 32015 ft | 509 kts | 137° |
| 2026-04-27 13:30 | 24.33454 | 111.13662 | 32014 ft | 508 kts | 137° |
| 2026-04-27 13:30 | 24.28408 | 111.19059 | 32015 ft | 507 kts | 137° |
| 2026-04-27 13:31 | 24.23350 | 111.24384 | 32013 ft | 507 kts | 139° |
| 2026-04-27 13:31 | 24.17792 | 111.29129 | 32024 ft | 504 kts | 149° |
| 2026-04-27 13:32 | 24.11649 | 111.32835 | 32028 ft | 502 kts | 156° |
| 2026-04-27 13:32 | 24.05323 | 111.36158 | 32027 ft | 503 kts | 156° |
| 2026-04-27 13:33 | 23.99050 | 111.39447 | 32024 ft | 501 kts | 156° |
| 2026-04-27 13:33 | 23.92752 | 111.42838 | 32011 ft | 502 kts | 155° |
| 2026-04-27 13:34 | 23.86523 | 111.46257 | 32016 ft | 503 kts | 155° |
| 2026-04-27 13:34 | 23.80482 | 111.49607 | 32012 ft | 504 kts | 155° |
| 2026-04-27 13:35 | 23.74237 | 111.53079 | 32010 ft | 503 kts | 154° |
| 2026-04-27 13:35 | 23.68297 | 111.56381 | 32009 ft | 504 kts | 155° |
| 2026-04-27 13:36 | 23.62026 | 111.59862 | 32005 ft | 504 kts | 155° |
| 2026-04-27 13:36 | 23.55819 | 111.63303 | 32002 ft | 504 kts | 154° |
| 2026-04-27 13:37 | 23.49551 | 111.66773 | 32001 ft | 504 kts | 155° |
| 2026-04-27 13:37 | 23.43268 | 111.70246 | 32000 ft | 504 kts | 155° |
| 2026-04-27 13:38 | 23.37455 | 111.73457 | 32004 ft | 503 kts | 155° |
| 2026-04-27 13:38 | 23.31389 | 111.76808 | 32005 ft | 503 kts | 155° |
| 2026-04-27 13:39 | 23.25373 | 111.80635 | 32022 ft | 504 kts | 146° |
| 2026-04-27 13:39 | 23.20062 | 111.85644 | 32032 ft | 507 kts | 134° |
| 2026-04-27 13:40 | 23.15733 | 111.91653 | 32039 ft | 507 kts | 122° |
| 2026-04-27 13:40 | 23.12539 | 111.98455 | 32051 ft | 506 kts | 110° |
| 2026-04-27 13:41 | 23.10615 | 112.05752 | 32049 ft | 505 kts | 99° |
| 2026-04-27 13:41 | 23.10018 | 112.13292 | 32043 ft | 502 kts | 88° |
| 2026-04-27 13:42 | 23.10459 | 112.20824 | 32036 ft | 501 kts | 84° |
| 2026-04-27 13:42 | 23.10519 | 112.28387 | 32030 ft | 505 kts | 92° |
| 2026-04-27 13:43 | 23.09671 | 112.35928 | 32031 ft | 504 kts | 99° |
| 2026-04-27 13:43 | 23.08261 | 112.43406 | 32020 ft | 505 kts | 102° |
| 2026-04-27 13:44 | 23.06843 | 112.50822 | 32019 ft | 504 kts | 97° |
| 2026-04-27 13:44 | 23.06105 | 112.58373 | 32017 ft | 502 kts | 93° |
| 2026-04-27 13:45 | 23.05663 | 112.65902 | 32014 ft | 503 kts | 92° |
| 2026-04-27 13:45 | 23.05245 | 112.73507 | 32016 ft | 502 kts | 92° |
| 2026-04-27 13:46 | 23.04787 | 112.81062 | 32011 ft | 503 kts | 93° |
| 2026-04-27 13:46 | 23.04289 | 112.88602 | 31809 ft | 503 kts | 93° |
| 2026-04-27 13:47 | 23.04031 | 112.92398 | 30963 ft | 507 kts | 94° |
| 2026-04-27 13:47 | 23.03770 | 112.96177 | 30224 ft | 505 kts | 94° |
| 2026-04-27 13:47 | 23.03436 | 112.99944 | 29584 ft | 501 kts | 97° |
| 2026-04-27 13:47 | 23.02827 | 113.03664 | 28940 ft | 497 kts | 104° |
| 2026-04-27 13:48 | 23.01778 | 113.07189 | 28326 ft | 493 kts | 113° |
| 2026-04-27 13:48 | 23.00277 | 113.10500 | 27708 ft | 488 kts | 121° |
| 2026-04-27 13:48 | 22.98428 | 113.13586 | 27091 ft | 483 kts | 126° |
| 2026-04-27 13:48 | 22.96418 | 113.16431 | 26481 ft | 479 kts | 131° |
| 2026-04-27 13:49 | 22.94121 | 113.19014 | 25862 ft | 473 kts | 140° |
| 2026-04-27 13:49 | 22.91539 | 113.21191 | 25247 ft | 468 kts | 148° |
| 2026-04-27 13:49 | 22.88747 | 113.23003 | 24630 ft | 462 kts | 154° |
| 2026-04-27 13:49 | 22.85999 | 113.24461 | 24043 ft | 458 kts | 159° |
| 2026-04-27 13:50 | 22.83027 | 113.25758 | 23390 ft | 450 kts | 162° |
| 2026-04-27 13:50 | 22.80155 | 113.26842 | 22794 ft | 433 kts | 165° |
| 2026-04-27 13:50 | 22.77308 | 113.27834 | 22069 ft | 422 kts | 166° |
| 2026-04-27 13:50 | 22.74546 | 113.28758 | 21243 ft | 416 kts | 166° |
| 2026-04-27 13:51 | 22.71802 | 113.29663 | 20411 ft | 409 kts | 166° |
| 2026-04-27 13:51 | 22.69082 | 113.30564 | 19561 ft | 403 kts | 166° |
| 2026-04-27 13:51 | 22.66438 | 113.31448 | 18618 ft | 400 kts | 165° |
| 2026-04-27 13:51 | 22.63788 | 113.32340 | 17663 ft | 396 kts | 165° |
| 2026-04-27 13:52 | 22.61202 | 113.33215 | 16724 ft | 392 kts | 165° |
| 2026-04-27 13:52 | 22.58606 | 113.34100 | 15770 ft | 387 kts | 165° |
| 2026-04-27 13:52 | 22.56066 | 113.34973 | 14964 ft | 379 kts | 164° |
| 2026-04-27 13:52 | 22.53595 | 113.35826 | 14184 ft | 370 kts | 164° |
| 2026-04-27 13:53 | 22.48812 | 113.37479 | 12624 ft | 356 kts | 164° |
| 2026-04-27 13:53 | 22.46453 | 113.38294 | 11833 ft | 350 kts | 163° |
| 2026-04-27 13:53 | 22.44154 | 113.39088 | 11047 ft | 344 kts | 163° |
| 2026-04-27 13:54 | 22.41896 | 113.39867 | 10260 ft | 339 kts | 163° |
| 2026-04-27 13:54 | 22.39675 | 113.40633 | 9470 ft | 335 kts | 163° |
| 2026-04-27 13:54 | 22.37464 | 113.41395 | 8678 ft | 331 kts | 163° |
| 2026-04-27 13:54 | 22.35310 | 113.42136 | 7941 ft | 326 kts | 163° |
| 2026-04-27 13:55 | 22.33177 | 113.42887 | 7219 ft | 320 kts | 160° |
| 2026-04-27 13:55 | 22.31178 | 113.43903 | 6492 ft | 316 kts | 148° |
| 2026-04-27 13:55 | 22.29645 | 113.45552 | 5758 ft | 314 kts | 121° |
| 2026-04-27 13:55 | 22.29004 | 113.47752 | 5038 ft | 313 kts | 94° |
| 2026-04-27 13:56 | 22.29316 | 113.50053 | 4310 ft | 312 kts | 70° |
| 2026-04-27 13:56 | 22.30415 | 113.52069 | 3590 ft | 311 kts | 52° |
| 2026-04-27 13:56 | 22.31973 | 113.53663 | 2866 ft | 310 kts | 38° |
| 2026-04-27 13:56 | 22.33749 | 113.54948 | 2140 ft | 307 kts | 33° |
| 2026-04-27 13:57 | 22.35532 | 113.56107 | 1812 ft | 290 kts | 33° |
| 2026-04-27 13:57 | 22.37198 | 113.57184 | 1797 ft | 264 kts | 33° |
| 2026-04-27 13:57 | 22.38648 | 113.58243 | 1802 ft | 242 kts | 47° |
| 2026-04-27 13:57 | 22.39480 | 113.59708 | 1760 ft | 217 kts | 79° |
| 2026-04-27 13:58 | 22.39611 | 113.61245 | 1771 ft | 199 kts | 96° |
| 2026-04-27 13:58 | 22.39391 | 113.62639 | 1793 ft | 180 kts | 106° |
| 2026-04-27 13:58 | 22.38941 | 113.63831 | 1780 ft | 164 kts | 122° |
| 2026-04-27 13:58 | 22.38249 | 113.64711 | 1810 ft | 142 kts | 136° |
| 2026-04-27 13:59 | 22.37486 | 113.65363 | 1792 ft | 139 kts | 145° |
| 2026-04-27 13:59 | 22.36605 | 113.65810 | 1792 ft | 139 kts | 160° |
| 2026-04-27 13:59 | 22.35661 | 113.66023 | 1794 ft | 140 kts | 171° |
| 2026-04-27 13:59 | 22.34678 | 113.66021 | 1791 ft | 141 kts | 184° |
| 2026-04-27 14:00 | 22.33728 | 113.65700 | 1787 ft | 148 kts | 212° |
| 2026-04-27 14:00 | 22.32943 | 113.64957 | 1799 ft | 149 kts | 214° |
| 2026-04-27 14:00 | 22.32201 | 113.64156 | 1749 ft | 153 kts | 231° |
| 2026-04-27 14:00 | 22.31700 | 113.63126 | 1600 ft | 156 kts | 241° |
| 2026-04-27 14:01 | 22.31270 | 113.62060 | 1267 ft | 156 kts | 244° |
| 2026-04-27 14:01 | 22.30861 | 113.60983 | 933 ft | 152 kts | 240° |
| 2026-04-27 14:01 | 22.30277 | 113.60070 | 889 ft | 146 kts | 218° |
| 2026-04-27 14:01 | 22.29515 | 113.59328 | 1031 ft | 147 kts | 217° |
| 2026-04-27 14:02 | 22.28716 | 113.58615 | 1024 ft | 149 kts | 210° |
| 2026-04-27 14:02 | 22.27880 | 113.57990 | 885 ft | 142 kts | 206° |
| 2026-04-27 14:02 | 22.26986 | 113.57554 | 1125 ft | 141 kts | 192° |
| 2026-04-27 14:02 | 22.26022 | 113.57322 | 1495 ft | 143 kts | 186° |
| 2026-04-27 14:03 | 22.25034 | 113.57087 | 1534 ft | 145 kts | 187° |
| 2026-04-27 14:03 | 22.24039 | 113.56915 | 1506 ft | 143 kts | 179° |
| 2026-04-27 14:03 | 22.23051 | 113.56865 | 1468 ft | 142 kts | 181° |
| 2026-04-27 14:03 | 22.22062 | 113.56762 | 1424 ft | 141 kts | 180° |
| 2026-04-27 14:04 | 22.21087 | 113.56833 | 1295 ft | 141 kts | 163° |
| 2026-04-27 14:04 | 22.20161 | 113.57166 | 906 ft | 141 kts | 153° |
| 2026-04-27 14:04 | 22.19267 | 113.57577 | 542 ft | 139 kts | 159° |
| 2026-04-27 14:04 | 22.18349 | 113.57858 | 313 ft | 132 kts | 157° |
| 2026-04-27 14:05 | 22.17484 | 113.58209 | 183 ft | 135 kts | 159° |
| 2026-04-27 14:05 | 22.16589 | 113.58521 | 82 ft | 132 kts | 159° |
| 2026-04-27 14:05 | 22.15712 | 113.58843 | 31 ft | 133 kts | 158° |
| 2026-04-27 14:05 | 22.14874 | 113.59167 | 17 ft | 104 kts | 159° |
| 2026-04-27 14:06 | 22.14454 | 113.59318 | 17 ft | 45 kts | 162° |
| 2026-04-27 14:06 | 22.14174 | 113.59377 | 20 ft | 27 kts | 226° |
| 2026-04-27 14:06 | 22.14106 | 113.59269 | 21 ft | 10 kts | 191° |
| 2026-04-27 14:06 | 22.13987 | 113.59302 | 20 ft | 23 kts | 159° |
| 2026-04-27 14:07 | 22.13788 | 113.59380 | 13 ft | 37 kts | 161° |
| 2026-04-27 14:07 | 22.13600 | 113.59441 | 10 ft | 19 kts | 158° |
| 2026-04-27 14:07 | 22.13561 | 113.59459 | 11 ft | 0 kts | 151° |
| 2026-04-27 14:07 | 22.13561 | 113.59458 | 11 ft | 0 kts | 151° |